Poquoson, Virginia
Current Conditions -  °F | °C
As of 11:58 PM on Monday 20 Oct 2014 (Local Time) from KLFI Reporting Station
Overcast Overcast  
Wind Chill: 59°   Ceiling: 20000
Heat Index: 59°   Visibility: 10mi
Dew Point: 55°   Wind: 8mph
Humidity: 84%   Direction: 190°S
Pressure: 29.98"   Gusts: NA
Location:  37.13°N, 76.37°W
Report Text: KLFI 210358Z AUTO 19007KT 10SM BKN200 OVC230 15/13 A2998 RMK AO2 SLPNO T01520125 $
Loading
Personal Weather Stations






























Interactive Weather Map
Tropical Storm Tracking
New forecast layout! Learn more

10-Day Weather Forecast

Advertisements
Track Severe Weather on mobile